sensor_id;sensor_type;location;lat;lon;timestamp;temperature;humidity
74220;DHT22;62580;54.416;11.120;2022-08-19T00:05:54;26.00;67.60
74220;DHT22;62580;54.416;11.120;2022-08-19T00:15:55;26.00;67.70
74220;DHT22;62580;54.416;11.120;2022-08-19T00:25:57;26.00;67.80
74220;DHT22;62580;54.416;11.120;2022-08-19T00:35:58;26.00;67.50
74220;DHT22;62580;54.416;11.120;2022-08-19T00:46:00;26.00;67.50
74220;DHT22;62580;54.416;11.120;2022-08-19T00:56:02;26.00;67.60
74220;DHT22;62580;54.416;11.120;2022-08-19T01:06:05;26.00;67.50
74220;DHT22;62580;54.416;11.120;2022-08-19T01:16:08;26.00;67.60
74220;DHT22;62580;54.416;11.120;2022-08-19T01:26:14;26.00;67.50
74220;DHT22;62580;54.416;11.120;2022-08-19T01:36:32;26.00;67.70
74220;DHT22;62580;54.416;11.120;2022-08-19T01:46:35;26.00;67.40
74220;DHT22;62580;54.416;11.120;2022-08-19T01:56:36;26.00;68.30
74220;DHT22;62580;54.416;11.120;2022-08-19T02:06:38;26.00;67.70
74220;DHT22;62580;54.416;11.120;2022-08-19T02:16:39;26.00;67.70
74220;DHT22;62580;54.416;11.120;2022-08-19T02:26:41;26.00;67.60
74220;DHT22;62580;54.416;11.120;2022-08-19T02:36:41;26.00;67.50
74220;DHT22;62580;54.416;11.120;2022-08-19T02:46:45;26.00;67.60
74220;DHT22;62580;54.416;11.120;2022-08-19T02:56:46;26.00;67.50
74220;DHT22;62580;54.416;11.120;2022-08-19T03:06:48;25.90;67.30
74220;DHT22;62580;54.416;11.120;2022-08-19T03:16:50;25.90;67.20
74220;DHT22;62580;54.416;11.120;2022-08-19T03:26:54;25.90;67.40
74220;DHT22;62580;54.416;11.120;2022-08-19T03:36:57;25.90;67.20
74220;DHT22;62580;54.416;11.120;2022-08-19T03:47:00;25.90;67.20
74220;DHT22;62580;54.416;11.120;2022-08-19T03:57:00;25.90;67.10
74220;DHT22;62580;54.416;11.120;2022-08-19T04:07:02;25.90;67.20
74220;DHT22;62580;54.416;11.120;2022-08-19T04:17:04;25.90;67.10
74220;DHT22;62580;54.416;11.120;2022-08-19T04:27:06;25.90;66.90
74220;DHT22;62580;54.416;11.120;2022-08-19T04:37:06;25.90;67.00
74220;DHT22;62580;54.416;11.120;2022-08-19T04:47:08;26.00;68.30
74220;DHT22;62580;54.416;11.120;2022-08-19T04:57:09;25.90;68.30
74220;DHT22;62580;54.416;11.120;2022-08-19T05:07:11;25.80;67.60
74220;DHT22;62580;54.416;11.120;2022-08-19T05:17:12;25.80;68.00
74220;DHT22;62580;54.416;11.120;2022-08-19T05:27:14;25.80;68.20
74220;DHT22;62580;54.416;11.120;2022-08-19T05:37:15;25.80;67.70
74220;DHT22;62580;54.416;11.120;2022-08-19T05:47:17;25.80;67.60
74220;DHT22;62580;54.416;11.120;2022-08-19T05:57:19;25.90;68.30
74220;DHT22;62580;54.416;11.120;2022-08-19T06:07:21;25.80;68.10
74220;DHT22;62580;54.416;11.120;2022-08-19T06:17:22;25.70;68.70
74220;DHT22;62580;54.416;11.120;2022-08-19T06:27:24;25.70;69.20
74220;DHT22;62580;54.416;11.120;2022-08-19T06:37:24;25.60;69.70
74220;DHT22;62580;54.416;11.120;2022-08-19T06:47:26;25.50;70.40
74220;DHT22;62580;54.416;11.120;2022-08-19T06:57:27;25.50;70.20
74220;DHT22;62580;54.416;11.120;2022-08-19T07:07:29;25.40;70.60
74220;DHT22;62580;54.416;11.120;2022-08-19T07:17:31;25.60;70.40
74220;DHT22;62580;54.416;11.120;2022-08-19T07:27:34;25.40;70.80
74220;DHT22;62580;54.416;11.120;2022-08-19T07:37:35;25.40;70.80
74220;DHT22;62580;54.416;11.120;2022-08-19T07:47:38;25.40;71.10
74220;DHT22;62580;54.416;11.120;2022-08-19T07:57:38;25.50;70.90
74220;DHT22;62580;54.416;11.120;2022-08-19T08:07:40;25.50;70.50
74220;DHT22;62580;54.416;11.120;2022-08-19T08:17:42;25.50;71.20
74220;DHT22;62580;54.416;11.120;2022-08-19T08:27:45;25.50;71.00
74220;DHT22;62580;54.416;11.120;2022-08-19T08:37:48;25.50;71.00
74220;DHT22;62580;54.416;11.120;2022-08-19T08:47:52;25.50;71.00
74220;DHT22;62580;54.416;11.120;2022-08-19T08:58:00;25.50;70.80
74220;DHT22;62580;54.416;11.120;2022-08-19T09:08:07;25.40;71.00
74220;DHT22;62580;54.416;11.120;2022-08-19T09:18:09;25.40;71.00
74220;DHT22;62580;54.416;11.120;2022-08-19T09:28:11;25.40;71.20
74220;DHT22;62580;54.416;11.120;2022-08-19T09:38:11;25.40;71.30
74220;DHT22;62580;54.416;11.120;2022-08-19T09:48:13;25.40;72.00
74220;DHT22;62580;54.416;11.120;2022-08-19T09:58:14;25.40;75.10
74220;DHT22;62580;54.416;11.120;2022-08-19T10:08:18;25.50;73.90
74220;DHT22;62580;54.416;11.120;2022-08-19T10:18:21;25.40;74.00
74220;DHT22;62580;54.416;11.120;2022-08-19T10:28:24;25.40;75.40
74220;DHT22;62580;54.416;11.120;2022-08-19T10:38:24;25.30;74.30
74220;DHT22;62580;54.416;11.120;2022-08-19T10:48:27;25.30;74.00
74220;DHT22;62580;54.416;11.120;2022-08-19T10:58:27;25.40;74.90
74220;DHT22;62580;54.416;11.120;2022-08-19T11:08:30;25.30;74.60
74220;DHT22;62580;54.416;11.120;2022-08-19T11:18:30;25.30;74.30
74220;DHT22;62580;54.416;11.120;2022-08-19T11:28:32;25.20;74.30
74220;DHT22;62580;54.416;11.120;2022-08-19T11:38:34;25.10;74.30
74220;DHT22;62580;54.416;11.120;2022-08-19T11:48:36;25.20;74.40
74220;DHT22;62580;54.416;11.120;2022-08-19T11:58:38;25.20;74.90
74220;DHT22;62580;54.416;11.120;2022-08-19T12:08:40;25.20;74.60
74220;DHT22;62580;54.416;11.120;2022-08-19T12:18:42;25.30;74.00
74220;DHT22;62580;54.416;11.120;2022-08-19T12:28:44;25.40;74.10
74220;DHT22;62580;54.416;11.120;2022-08-19T12:38:45;25.40;73.90
74220;DHT22;62580;54.416;11.120;2022-08-19T12:48:47;25.40;73.80
74220;DHT22;62580;54.416;11.120;2022-08-19T12:58:48;25.40;73.50
74220;DHT22;62580;54.416;11.120;2022-08-19T13:08:50;25.30;73.60
74220;DHT22;62580;54.416;11.120;2022-08-19T13:18:51;25.40;73.30
74220;DHT22;62580;54.416;11.120;2022-08-19T13:28:53;25.40;73.30
74220;DHT22;62580;54.416;11.120;2022-08-19T13:38:53;25.40;73.10
74220;DHT22;62580;54.416;11.120;2022-08-19T13:48:56;25.40;72.80
74220;DHT22;62580;54.416;11.120;2022-08-19T13:58:57;25.50;72.70
74220;DHT22;62580;54.416;11.120;2022-08-19T14:08:59;25.50;72.50
74220;DHT22;62580;54.416;11.120;2022-08-19T14:18:59;25.40;72.00
74220;DHT22;62580;54.416;11.120;2022-08-19T14:29:01;25.40;71.60
74220;DHT22;62580;54.416;11.120;2022-08-19T14:39:02;25.40;71.10
74220;DHT22;62580;54.416;11.120;2022-08-19T14:49:04;25.40;71.20
74220;DHT22;62580;54.416;11.120;2022-08-19T14:59:05;25.50;71.50
74220;DHT22;62580;54.416;11.120;2022-08-19T15:09:07;25.50;71.10
74220;DHT22;62580;54.416;11.120;2022-08-19T15:19:08;25.40;70.60
74220;DHT22;62580;54.416;11.120;2022-08-19T15:29:11;25.30;70.10
74220;DHT22;62580;54.416;11.120;2022-08-19T15:39:11;25.40;70.60
74220;DHT22;62580;54.416;11.120;2022-08-19T15:49:15;25.50;70.40
74220;DHT22;62580;54.416;11.120;2022-08-19T15:59:16;25.60;70.20
74220;DHT22;62580;54.416;11.120;2022-08-19T16:09:19;25.60;70.00
74220;DHT22;62580;54.416;11.120;2022-08-19T16:19:20;25.70;69.40
74220;DHT22;62580;54.416;11.120;2022-08-19T16:29:22;25.70;69.10
74220;DHT22;62580;54.416;11.120;2022-08-19T16:39:23;25.70;69.00
74220;DHT22;62580;54.416;11.120;2022-08-19T16:49:26;25.60;68.80
74220;DHT22;62580;54.416;11.120;2022-08-19T16:59:27;25.60;68.70
74220;DHT22;62580;54.416;11.120;2022-08-19T17:09:29;25.60;68.90
74220;DHT22;62580;54.416;11.120;2022-08-19T17:19:30;25.50;69.00
74220;DHT22;62580;54.416;11.120;2022-08-19T17:29:32;25.50;68.90
74220;DHT22;62580;54.416;11.120;2022-08-19T17:39:33;25.40;68.80
74220;DHT22;62580;54.416;11.120;2022-08-19T17:49:35;25.40;68.80
74220;DHT22;62580;54.416;11.120;2022-08-19T17:59:36;25.40;68.90
74220;DHT22;62580;54.416;11.120;2022-08-19T18:09:39;25.40;69.20
74220;DHT22;62580;54.416;11.120;2022-08-19T18:19:41;25.40;69.30
74220;DHT22;62580;54.416;11.120;2022-08-19T18:29:43;25.40;69.30
74220;DHT22;62580;54.416;11.120;2022-08-19T18:39:44;25.40;69.20
74220;DHT22;62580;54.416;11.120;2022-08-19T18:49:46;25.30;69.20
74220;DHT22;62580;54.416;11.120;2022-08-19T18:59:47;25.30;69.30
74220;DHT22;62580;54.416;11.120;2022-08-19T19:09:49;25.30;69.40
74220;DHT22;62580;54.416;11.120;2022-08-19T19:19:49;25.30;69.30
74220;DHT22;62580;54.416;11.120;2022-08-19T19:29:52;25.30;69.20
74220;DHT22;62580;54.416;11.120;2022-08-19T19:39:52;25.30;69.20
74220;DHT22;62580;54.416;11.120;2022-08-19T19:49:55;25.30;69.40
74220;DHT22;62580;54.416;11.120;2022-08-19T19:59:56;25.30;69.30
74220;DHT22;62580;54.416;11.120;2022-08-19T20:09:58;25.30;69.40
74220;DHT22;62580;54.416;11.120;2022-08-19T20:19:58;25.30;69.50
74220;DHT22;62580;54.416;11.120;2022-08-19T20:30:00;25.30;69.50
74220;DHT22;62580;54.416;11.120;2022-08-19T20:40:01;25.30;69.50
74220;DHT22;62580;54.416;11.120;2022-08-19T20:50:04;25.30;69.60
74220;DHT22;62580;54.416;11.120;2022-08-19T21:00:06;25.30;69.70
74220;DHT22;62580;54.416;11.120;2022-08-19T21:10:09;25.30;69.60
74220;DHT22;62580;54.416;11.120;2022-08-19T21:20:10;25.30;69.80
74220;DHT22;62580;54.416;11.120;2022-08-19T21:30:12;25.30;69.80
74220;DHT22;62580;54.416;11.120;2022-08-19T21:40:13;25.30;69.60
74220;DHT22;62580;54.416;11.120;2022-08-19T21:50:16;25.30;69.50
74220;DHT22;62580;54.416;11.120;2022-08-19T22:00:18;25.30;69.40
74220;DHT22;62580;54.416;11.120;2022-08-19T22:10:21;25.20;69.00
74220;DHT22;62580;54.416;11.120;2022-08-19T22:20:23;25.20;68.90
74220;DHT22;62580;54.416;11.120;2022-08-19T22:30:26;25.20;68.80
74220;DHT22;62580;54.416;11.120;2022-08-19T22:40:28;25.20;68.70
74220;DHT22;62580;54.416;11.120;2022-08-19T22:50:30;25.20;68.60
74220;DHT22;62580;54.416;11.120;2022-08-19T23:00:32;25.20;68.50
74220;DHT22;62580;54.416;11.120;2022-08-19T23:10:34;25.20;68.40
74220;DHT22;62580;54.416;11.120;2022-08-19T23:20:37;25.20;68.40
74220;DHT22;62580;54.416;11.120;2022-08-19T23:30:41;25.20;68.20
74220;DHT22;62580;54.416;11.120;2022-08-19T23:40:42;25.20;68.20
74220;DHT22;62580;54.416;11.120;2022-08-19T23:50:45;25.20;68.10
